Time;durP1;ratioP1;P1;durP2;ratioP2;P2;SDS_P1;SDS_P2;PMS_P1;PMS_P2;Temp;Humidity;BMP_temperature;BMP_pressure;BME280_temperature;BME280_humidity;BME280_pressure;Samples;Min_cycle;Max_cycle;Signal;HPM_P1;HPM_P2
2022/12/19 00:01:16;;;;;;;142.70;51.50;;;2.40;99.90;;;;;;5031250;28;20018;-68
2022/12/19 00:03:46;;;;;;;153.18;51.53;;;2.30;99.90;;;;;;5031258;28;20087;-68
2022/12/19 00:06:13;;;;;;;174.27;55.00;;;2.30;99.90;;;;;;5031411;28;20025;-68
2022/12/19 00:08:44;;;;;;;151.00;50.90;;;2.40;99.90;;;;;;5031561;28;20417;-68
2022/12/19 00:11:11;;;;;;;143.00;48.20;;;2.30;99.90;;;;;;5030817;28;20029;-68
2022/12/19 00:13:37;;;;;;;197.23;56.53;;;2.40;99.90;;;;;;5031231;28;20091;-68
2022/12/19 00:16:10;;;;;;;162.27;51.97;;;2.30;99.90;;;;;;5031678;28;20034;-68
2022/12/19 00:18:35;;;;;;;144.27;50.97;;;2.40;99.90;;;;;;5031208;28;20029;-68
2022/12/19 00:21:03;;;;;;;150.88;51.28;;;2.40;99.90;;;;;;5030003;28;20030;-68
2022/12/19 00:23:32;;;;;;;148.65;48.97;;;2.40;99.90;;;;;;5031233;28;20025;-68
2022/12/19 00:26:17;;;;;;;132.40;47.88;;;2.40;99.90;;;;;;5030860;28;20108;-69
2022/12/19 00:28:45;;;;;;;153.65;52.78;;;2.40;99.90;;;;;;5032001;28;20021;-68
2022/12/19 00:31:11;;;;;;;143.23;50.35;;;2.50;99.90;;;;;;5031646;28;20025;-68
2022/12/19 00:33:37;;;;;;;142.63;48.17;;;2.50;99.90;;;;;;5030579;28;20064;-68
2022/12/19 00:36:05;;;;;;;141.95;50.70;;;2.50;99.90;;;;;;5030941;28;20059;-68
2022/12/19 00:38:31;;;;;;;142.07;48.53;;;2.50;99.90;;;;;;5031174;28;20047;-68
2022/12/19 00:41:08;;;;;;;143.13;48.00;;;2.60;99.90;;;;;;5030060;28;20021;-68
2022/12/19 00:43:34;;;;;;;139.77;50.40;;;2.60;99.90;;;;;;5029315;28;20455;-68
2022/12/19 00:46:04;;;;;;;146.38;49.28;;;2.60;99.90;;;;;;5029323;28;20061;-68
2022/12/19 00:48:31;;;;;;;131.85;48.47;;;2.60;99.90;;;;;;5030570;28;20032;-68
2022/12/19 00:51:01;;;;;;;140.75;51.70;;;2.60;99.90;;;;;;5028803;28;20040;-68
2022/12/19 00:53:27;;;;;;;133.00;47.92;;;2.70;99.90;;;;;;5030078;28;20507;-69
2022/12/19 00:55:53;;;;;;;170.18;51.00;;;2.80;99.90;;;;;;5031136;28;20112;-68
2022/12/19 00:58:18;;;;;;;168.10;52.58;;;2.60;99.90;;;;;;5030297;28;20120;-68
2022/12/19 01:00:44;;;;;;;137.60;48.75;;;2.70;99.90;;;;;;5030721;28;20013;-68
2022/12/19 01:03:09;;;;;;;170.32;52.88;;;2.70;99.90;;;;;;5029310;28;20017;-68
2022/12/19 01:05:35;;;;;;;169.60;53.33;;;2.70;99.90;;;;;;5028819;28;20030;-68
2022/12/19 01:08:01;;;;;;;171.73;54.65;;;2.70;99.90;;;;;;5029699;28;20482;-68
2022/12/19 01:10:26;;;;;;;144.75;49.33;;;2.70;99.90;;;;;;5030923;28;20036;-67
2022/12/19 01:12:52;;;;;;;171.30;53.33;;;2.70;99.90;;;;;;5030032;28;20033;-68
2022/12/19 01:15:19;;;;;;;152.15;52.05;;;2.70;99.90;;;;;;5030529;28;20397;-67
2022/12/19 01:17:46;;;;;;;152.43;50.95;;;2.80;99.90;;;;;;5027547;28;20041;-68
2022/12/19 01:20:15;;;;;;;149.38;52.05;;;2.70;99.90;;;;;;5029674;28;20374;-68
2022/12/19 01:22:40;;;;;;;149.00;51.83;;;2.80;99.90;;;;;;5029986;28;20029;-67
2022/12/19 01:25:06;;;;;;;143.52;49.70;;;2.80;99.90;;;;;;5029659;28;20389;-68
2022/12/19 01:27:32;;;;;;;180.68;54.85;;;2.80;99.90;;;;;;5029454;28;20022;-68
2022/12/19 01:29:58;;;;;;;129.60;45.63;;;2.70;99.90;;;;;;5030756;28;20028;-68
2022/12/19 01:32:23;;;;;;;170.27;49.72;;;2.80;99.90;;;;;;5030564;28;20030;-68
2022/12/19 01:34:49;;;;;;;122.28;46.63;;;2.70;99.90;;;;;;5031028;28;20428;-68
2022/12/19 01:37:14;;;;;;;120.25;44.25;;;2.80;99.90;;;;;;5028416;28;20029;-68
2022/12/19 01:39:40;;;;;;;127.00;48.22;;;2.90;99.90;;;;;;5028353;28;20040;-68
2022/12/19 01:42:19;;;;;;;138.60;46.60;;;3.00;99.90;;;;;;5031158;28;20025;-68
2022/12/19 01:45:24;;;;;;;118.45;44.45;;;3.00;99.90;;;;;;5030605;28;20030;-68
2022/12/19 01:48:01;;;;;;;163.02;48.90;;;3.10;99.90;;;;;;5032374;28;20128;-68
2022/12/19 01:50:45;;;;;;;191.45;53.17;;;3.10;99.90;;;;;;5031990;28;20028;-68
2022/12/19 01:53:13;;;;;;;213.02;54.58;;;3.10;99.90;;;;;;5031030;28;20026;-68
2022/12/19 01:55:40;;;;;;;138.68;45.88;;;3.10;99.90;;;;;;5034006;28;20382;-68
2022/12/19 01:58:07;;;;;;;236.05;58.78;;;3.10;99.90;;;;;;5033522;28;20020;-69
2022/12/19 02:00:33;;;;;;;155.07;48.63;;;3.10;99.90;;;;;;5032541;28;20053;-68
2022/12/19 02:03:22;;;;;;;222.10;55.40;;;3.10;99.90;;;;;;5033173;28;20052;-68
2022/12/19 02:05:49;;;;;;;182.32;55.53;;;3.00;99.90;;;;;;5024624;28;20025;-68
2022/12/19 02:08:15;;;;;;;175.38;51.20;;;3.10;99.90;;;;;;5033854;28;20017;-68
2022/12/19 02:10:41;;;;;;;158.43;47.40;;;3.20;99.90;;;;;;5033624;28;20018;-68
2022/12/19 02:13:07;;;;;;;117.57;41.35;;;3.30;99.90;;;;;;5032647;28;20029;-68
2022/12/19 02:15:56;;;;;;;109.28;38.97;;;3.40;99.90;;;;;;5033576;28;20096;-68
2022/12/19 02:18:59;;;;;;;99.55;36.03;;;3.50;99.90;;;;;;5030889;28;20076;-68
2022/12/19 02:21:36;;;;;;;181.82;51.65;;;3.60;99.90;;;;;;5031342;28;20536;-69
2022/12/19 02:24:15;;;;;;;102.95;37.78;;;3.50;99.90;;;;;;5033079;28;20045;-68
2022/12/19 02:26:47;;;;;;;126.10;41.63;;;3.80;99.90;;;;;;5030891;28;20440;-68
2022/12/19 02:29:44;;;;;;;129.15;42.88;;;3.90;99.90;;;;;;5032933;28;20049;-69
2022/12/19 02:32:28;;;;;;;138.93;42.65;;;3.90;99.90;;;;;;5031686;28;20029;-69
2022/12/19 02:35:10;;;;;;;140.60;43.17;;;4.10;99.90;;;;;;5032535;28;20033;-69
2022/12/19 02:37:44;;;;;;;151.38;44.55;;;4.10;99.90;;;;;;5032755;28;20100;-69
2022/12/19 02:40:26;;;;;;;132.50;41.97;;;4.20;99.90;;;;;;5032846;28;20113;-69
2022/12/19 02:43:04;;;;;;;146.88;43.33;;;4.30;99.90;;;;;;5030487;28;20033;-68
2022/12/19 02:45:34;;;;;;;140.60;45.80;;;4.30;99.90;;;;;;5033967;28;20025;-69
2022/12/19 02:48:02;;;;;;;134.45;43.40;;;4.40;99.90;;;;;;5030564;28;20024;-68
2022/12/19 02:50:39;;;;;;;144.45;45.58;;;4.40;99.90;;;;;;5031713;28;20524;-69
2022/12/19 02:53:05;;;;;;;127.90;43.95;;;4.50;99.90;;;;;;5030856;28;20029;-68
2022/12/19 02:55:37;;;;;;;148.63;48.05;;;4.50;99.90;;;;;;5031783;28;20520;-68
2022/12/19 02:58:32;;;;;;;142.48;45.70;;;4.50;99.90;;;;;;5030850;28;20457;-68
2022/12/19 03:01:30;;;;;;;141.90;43.20;;;4.60;99.90;;;;;;5029758;28;20030;-70
2022/12/19 03:04:04;;;;;;;145.10;43.90;;;4.60;99.90;;;;;;5019691;28;20087;-69
2022/12/19 03:07:05;;;;;;;121.38;43.17;;;4.70;99.90;;;;;;5032525;28;20099;-69
2022/12/19 03:09:54;;;;;;;138.68;42.75;;;4.70;99.90;;;;;;5032044;28;20108;-69
2022/12/19 03:12:29;;;;;;;128.35;41.95;;;4.70;99.90;;;;;;5030381;28;20026;-68
2022/12/19 03:14:57;;;;;;;132.57;40.00;;;4.80;99.90;;;;;;5032139;28;20489;-69
2022/12/19 03:17:23;;;;;;;191.52;49.75;;;4.80;99.90;;;;;;5031902;28;20033;-69
2022/12/19 03:19:49;;;;;;;137.32;43.13;;;4.80;99.90;;;;;;5031801;28;20026;-69
2022/12/19 03:22:15;;;;;;;117.03;39.50;;;4.90;99.90;;;;;;5034776;28;20041;-68
2022/12/19 03:24:41;;;;;;;132.45;41.13;;;4.80;99.90;;;;;;5048249;28;20037;-69
2022/12/19 03:27:27;;;;;;;114.68;39.22;;;4.90;99.90;;;;;;5031764;28;20021;-68
2022/12/19 03:30:14;;;;;;;139.10;44.17;;;4.90;99.90;;;;;;5023614;28;20021;-68
2022/12/19 03:32:43;;;;;;;111.22;39.83;;;5.00;99.90;;;;;;5012640;28;20081;-68
2022/12/19 03:35:23;;;;;;;122.22;40.05;;;5.00;99.90;;;;;;5013077;28;20026;-69
2022/12/19 03:37:51;;;;;;;107.50;37.72;;;5.10;99.90;;;;;;5012738;28;20033;-69
2022/12/19 03:40:20;;;;;;;115.80;39.42;;;5.10;99.90;;;;;;5012550;28;20509;-69
2022/12/19 03:45:38;;;;;;;117.15;38.63;;;5.00;99.90;;;;;;5027550;28;20734;-69
2022/12/19 03:48:11;;;;;;;100.85;37.13;;;5.10;99.90;;;;;;5032022;28;20393;-69
2022/12/19 03:51:00;;;;;;;106.13;38.63;;;5.10;99.90;;;;;;5031873;28;20100;-70
2022/12/19 03:53:53;;;;;;;115.97;39.88;;;5.30;99.90;;;;;;5031886;28;20025;-69
2022/12/19 03:56:27;;;;;;;92.43;35.78;;;5.30;99.90;;;;;;5032004;28;20064;-69
2022/12/19 03:59:00;;;;;;;118.97;40.13;;;5.40;99.90;;;;;;5031966;28;20068;-69
2022/12/19 04:01:27;;;;;;;101.85;37.65;;;5.40;99.90;;;;;;5032339;28;20470;-70
2022/12/19 04:03:56;;;;;;;100.82;38.45;;;5.40;99.90;;;;;;5032111;28;20021;-71
2022/12/19 04:06:21;;;;;;;119.00;43.15;;;5.50;99.90;;;;;;5032228;28;20083;-70
2022/12/19 04:08:48;;;;;;;120.53;40.60;;;5.40;99.90;;;;;;5032340;28;20022;-71
2022/12/19 04:11:19;;;;;;;115.60;42.95;;;5.50;99.90;;;;;;5037377;28;20420;-70
2022/12/19 04:14:02;;;;;;;111.85;41.10;;;5.50;99.90;;;;;;5048930;28;20044;-70
2022/12/19 04:16:41;;;;;;;108.05;38.22;;;5.60;99.90;;;;;;5031617;28;20029;-72
2022/12/19 04:19:19;;;;;;;87.57;33.35;;;5.60;99.90;;;;;;5029851;28;20056;-71
2022/12/19 04:21:52;;;;;;;91.22;36.03;;;5.80;99.90;;;;;;5030726;28;20053;-70
2022/12/19 04:24:25;;;;;;;113.03;41.25;;;5.70;99.90;;;;;;5031955;28;20025;-70
2022/12/19 04:26:54;;;;;;;124.72;40.53;;;5.80;99.90;;;;;;5032324;28;20046;-70
2022/12/19 04:29:22;;;;;;;107.10;43.28;;;5.80;99.90;;;;;;5031675;28;20065;-70
2022/12/19 04:31:48;;;;;;;103.57;36.70;;;5.90;99.90;;;;;;5031778;28;20120;-70
2022/12/19 04:34:19;;;;;;;107.75;43.20;;;5.90;99.90;;;;;;5030251;28;20216;-70
2022/12/19 04:36:44;;;;;;;90.13;33.95;;;6.00;99.90;;;;;;5031731;28;20084;-71
2022/12/19 04:39:10;;;;;;;100.60;36.80;;;6.00;99.90;;;;;;5031371;28;20025;-70
2022/12/19 04:41:35;;;;;;;103.90;36.30;;;6.10;99.90;;;;;;5033386;28;20064;-70
2022/12/19 04:44:01;;;;;;;96.78;34.20;;;6.10;99.90;;;;;;5037168;28;20109;-70
2022/12/19 04:46:27;;;;;;;81.18;32.28;;;6.10;99.90;;;;;;5053820;28;20534;-70
2022/12/19 04:48:52;;;;;;;95.75;34.72;;;6.10;99.90;;;;;;5054913;28;20039;-70
2022/12/19 04:51:18;;;;;;;86.15;32.45;;;6.20;99.90;;;;;;5054833;28;20021;-70
2022/12/19 04:53:43;;;;;;;81.93;30.50;;;6.20;99.90;;;;;;5055026;28;20133;-70
2022/12/19 04:56:09;;;;;;;81.13;30.08;;;6.20;99.90;;;;;;5055059;28;20056;-70
2022/12/19 04:58:35;;;;;;;78.65;30.77;;;6.30;99.90;;;;;;5052398;28;20083;-69
2022/12/19 05:01:03;;;;;;;75.72;28.63;;;6.20;99.90;;;;;;5033579;28;20025;-70
2022/12/19 05:03:28;;;;;;;87.50;33.00;;;6.30;99.90;;;;;;5034953;28;20032;-71
2022/12/19 05:06:03;;;;;;;78.00;28.83;;;6.40;99.90;;;;;;5033559;28;20013;-70
2022/12/19 05:08:28;;;;;;;68.65;28.50;;;6.40;99.90;;;;;;5035403;28;20049;-69
2022/12/19 05:10:59;;;;;;;68.15;28.77;;;6.50;99.90;;;;;;5034828;28;20064;-71
2022/12/19 05:13:24;;;;;;;69.60;29.45;;;6.60;99.90;;;;;;5033857;28;20030;-70
2022/12/19 05:15:58;;;;;;;67.43;28.67;;;6.60;99.90;;;;;;5033416;28;20030;-69
2022/12/19 05:18:24;;;;;;;64.82;26.90;;;6.70;99.90;;;;;;5033674;28;20036;-69
2022/12/19 05:20:50;;;;;;;61.42;27.02;;;6.80;99.90;;;;;;5035429;28;20014;-69
2022/12/19 05:23:15;;;;;;;50.50;23.25;;;6.70;99.90;;;;;;5033890;28;20104;-69
2022/12/19 05:25:41;;;;;;;61.17;26.10;;;6.70;99.90;;;;;;5033301;28;20109;-69
2022/12/19 05:28:07;;;;;;;61.90;25.35;;;6.70;99.90;;;;;;5034496;28;20374;-69
2022/12/19 05:30:32;;;;;;;66.68;28.25;;;6.80;99.90;;;;;;5030877;28;20389;-69
2022/12/19 05:32:58;;;;;;;55.85;24.38;;;6.80;99.90;;;;;;5014605;28;20030;-69
2022/12/19 05:35:23;;;;;;;57.13;25.92;;;6.90;99.90;;;;;;5019456;28;20047;-70
2022/12/19 05:37:49;;;;;;;52.15;25.35;;;6.90;99.90;;;;;;5033319;28;20025;-70
2022/12/19 05:40:15;;;;;;;54.38;24.30;;;6.90;99.90;;;;;;5032287;28;20138;-69
2022/12/19 05:42:40;;;;;;;67.35;26.35;;;6.90;99.90;;;;;;5033561;28;20488;-69
2022/12/19 05:45:07;;;;;;;54.15;25.02;;;6.90;99.90;;;;;;5034323;28;20059;-69
2022/12/19 05:47:33;;;;;;;50.88;22.67;;;6.90;99.90;;;;;;5034677;28;20032;-70
2022/12/19 05:49:59;;;;;;;56.28;23.70;;;7.00;99.90;;;;;;5034623;28;20075;-70
2022/12/19 05:52:24;;;;;;;53.92;24.80;;;7.00;99.90;;;;;;5033544;28;20033;-71
2022/12/19 05:54:50;;;;;;;50.88;22.75;;;7.00;99.90;;;;;;5033970;28;20037;-70
2022/12/19 05:57:16;;;;;;;57.45;24.48;;;7.00;99.90;;;;;;5034018;28;20040;-69
2022/12/19 05:59:41;;;;;;;65.53;25.63;;;7.10;99.90;;;;;;5034739;28;20369;-69
2022/12/19 06:02:07;;;;;;;41.80;21.42;;;7.10;99.90;;;;;;5018163;28;20032;-69
2022/12/19 06:04:35;;;;;;;44.88;20.60;;;7.20;99.90;;;;;;5014479;28;20061;-69
2022/12/19 06:07:02;;;;;;;44.80;21.02;;;7.20;99.90;;;;;;5013950;28;20034;-69
2022/12/19 06:09:27;;;;;;;39.88;19.17;;;7.20;99.90;;;;;;5025945;28;20022;-69
2022/12/19 06:11:53;;;;;;;44.28;20.92;;;7.20;99.90;;;;;;5025694;28;20037;-70
2022/12/19 06:14:19;;;;;;;43.72;21.00;;;7.30;99.90;;;;;;5033562;28;20091;-69
2022/12/19 06:16:44;;;;;;;44.90;21.48;;;7.30;99.90;;;;;;5034185;28;20466;-70
2022/12/19 06:19:10;;;;;;;40.63;20.40;;;7.30;99.90;;;;;;5033005;28;20076;-69
2022/12/19 06:21:36;;;;;;;43.50;20.60;;;7.40;99.90;;;;;;5033912;28;20026;-69
2022/12/19 06:24:01;;;;;;;42.67;21.05;;;7.40;99.90;;;;;;5033573;28;20036;-70
2022/12/19 06:26:27;;;;;;;33.67;18.27;;;7.40;99.90;;;;;;5033444;28;20033;-69
2022/12/19 06:28:54;;;;;;;47.25;21.77;;;7.50;99.90;;;;;;5033486;28;20029;-69
2022/12/19 06:31:21;;;;;;;35.47;18.25;;;7.50;99.90;;;;;;5033737;28;20471;-70
2022/12/19 06:33:47;;;;;;;37.75;18.92;;;7.50;99.90;;;;;;5033577;28;20443;-69
2022/12/19 06:36:18;;;;;;;41.80;19.25;;;7.50;99.90;;;;;;5033508;28;20041;-70
2022/12/19 06:38:44;;;;;;;47.78;21.55;;;7.50;99.90;;;;;;5033493;28;20030;-70
2022/12/19 06:44:02;;;;;;;45.38;21.95;;;7.60;99.90;;;;;;5025178;28;20493;-70
2022/12/19 06:46:29;;;;;;;49.30;22.95;;;7.60;99.90;;;;;;5033270;28;20041;-71
2022/12/19 06:48:55;;;;;;;44.13;20.23;;;7.60;99.90;;;;;;5030634;28;20033;-71
2022/12/19 06:51:21;;;;;;;37.55;19.65;;;7.60;99.90;;;;;;5029833;28;20025;-71
2022/12/19 06:53:46;;;;;;;33.47;17.83;;;7.60;99.90;;;;;;5027967;28;20048;-70
2022/12/19 06:56:14;;;;;;;34.90;19.20;;;7.60;99.90;;;;;;5012823;28;20033;-70
2022/12/19 06:58:40;;;;;;;35.55;18.52;;;7.70;99.90;;;;;;5019675;28;20501;-69
2022/12/19 07:01:05;;;;;;;41.53;19.83;;;7.70;99.90;;;;;;5032676;28;20017;-70
2022/12/19 07:03:37;;;;;;;33.42;17.83;;;7.70;99.90;;;;;;5031732;28;20408;-70
2022/12/19 07:06:03;;;;;;;29.75;17.17;;;7.70;99.90;;;;;;5032756;28;20013;-69
2022/12/19 07:08:29;;;;;;;36.75;18.10;;;7.70;99.90;;;;;;5032731;28;20501;-69
2022/12/19 07:10:56;;;;;;;35.38;18.38;;;7.80;99.90;;;;;;5032623;28;20025;-69
2022/12/19 07:13:21;;;;;;;34.15;18.60;;;7.80;99.90;;;;;;5032140;28;20033;-70
2022/12/19 07:15:48;;;;;;;32.85;19.27;;;7.80;99.90;;;;;;5031333;28;20129;-69
2022/12/19 07:18:14;;;;;;;42.30;21.25;;;7.80;99.90;;;;;;5031739;28;20029;-71
2022/12/19 07:20:41;;;;;;;34.17;18.17;;;7.80;99.90;;;;;;5032993;28;20030;-69
2022/12/19 07:23:09;;;;;;;32.92;17.88;;;7.80;99.90;;;;;;5028977;28;20057;-69
2022/12/19 07:25:36;;;;;;;37.13;21.23;;;7.70;99.90;;;;;;5029602;28;20025;-69
2022/12/19 07:28:02;;;;;;;32.13;19.30;;;7.80;99.90;;;;;;5028813;28;20029;-69
2022/12/19 07:30:27;;;;;;;35.42;20.02;;;7.80;99.90;;;;;;5030009;28;20438;-69
2022/12/19 07:32:53;;;;;;;34.70;18.95;;;7.80;99.90;;;;;;5032191;28;20362;-69
2022/12/19 07:35:20;;;;;;;32.13;16.63;;;7.80;99.90;;;;;;5029463;28;20033;-69
2022/12/19 07:37:45;;;;;;;33.95;19.08;;;7.80;99.90;;;;;;5030167;28;20029;-69
2022/12/19 07:40:11;;;;;;;34.88;18.83;;;7.80;99.90;;;;;;5031199;28;20025;-69
2022/12/19 07:42:37;;;;;;;29.17;17.25;;;7.80;99.90;;;;;;5029227;28;20021;-70
2022/12/19 07:45:03;;;;;;;24.33;13.98;;;7.80;99.90;;;;;;5031047;28;20080;-70
2022/12/19 07:47:29;;;;;;;30.30;15.50;;;7.80;99.90;;;;;;5032376;28;20429;-69
2022/12/19 07:49:54;;;;;;;29.15;16.80;;;7.90;99.90;;;;;;5030566;28;20141;-69
2022/12/19 07:52:20;;;;;;;27.67;16.17;;;7.80;99.90;;;;;;5031232;28;20060;-69
2022/12/19 07:54:46;;;;;;;32.05;16.90;;;7.90;99.90;;;;;;5031131;28;20052;-69
2022/12/19 07:57:11;;;;;;;31.00;14.93;;;7.90;99.90;;;;;;5031278;28;20068;-69
2022/12/19 07:59:37;;;;;;;27.75;14.65;;;7.90;99.90;;;;;;5030352;28;20104;-69
2022/12/19 08:02:02;;;;;;;22.17;13.98;;;8.00;99.90;;;;;;5031108;28;20105;-68
2022/12/19 08:04:28;;;;;;;26.75;15.57;;;8.00;99.90;;;;;;5032272;28;20092;-69
2022/12/19 08:06:53;;;;;;;23.85;14.00;;;8.00;99.90;;;;;;5031999;28;20029;-68
2022/12/19 08:09:19;;;;;;;26.83;15.05;;;8.00;99.90;;;;;;5029802;28;20017;-69
2022/12/19 08:11:45;;;;;;;25.98;15.05;;;8.00;99.90;;;;;;5031058;28;20025;-69
2022/12/19 08:14:10;;;;;;;24.30;12.77;;;8.00;99.90;;;;;;5030892;28;20405;-69
2022/12/19 08:16:36;;;;;;;26.30;14.55;;;8.00;99.90;;;;;;5033229;28;20029;-69
2022/12/19 08:19:02;;;;;;;24.20;13.88;;;8.00;99.90;;;;;;5036304;28;20056;-69
2022/12/19 08:21:28;;;;;;;28.15;14.73;;;8.00;99.90;;;;;;5033989;28;20078;-70
2022/12/19 08:23:53;;;;;;;20.38;13.93;;;8.10;99.90;;;;;;5035612;28;20029;-69
2022/12/19 08:26:23;;;;;;;23.98;14.57;;;8.20;99.90;;;;;;5027826;28;20152;-68
2022/12/19 08:28:53;;;;;;;21.05;13.20;;;8.20;99.90;;;;;;5029760;28;20033;-69
2022/12/19 08:31:19;;;;;;;25.40;13.70;;;8.20;99.90;;;;;;5034548;28;20022;-69
2022/12/19 08:33:46;;;;;;;25.63;14.75;;;8.20;99.90;;;;;;5035704;28;20044;-71
2022/12/19 08:36:13;;;;;;;22.67;14.32;;;8.20;99.90;;;;;;5033851;28;20474;-69
2022/12/19 08:38:40;;;;;;;20.20;12.20;;;8.20;99.90;;;;;;5035697;28;20494;-69
2022/12/19 08:41:06;;;;;;;18.83;11.43;;;8.20;99.90;;;;;;5035416;28;20377;-68
2022/12/19 08:43:33;;;;;;;25.58;13.85;;;8.30;99.90;;;;;;5034445;28;20136;-69
2022/12/19 08:45:59;;;;;;;21.52;13.55;;;8.30;99.90;;;;;;5034439;28;20036;-70
2022/12/19 08:48:25;;;;;;;23.10;11.82;;;8.30;99.90;;;;;;5034994;28;20025;-69
2022/12/19 08:50:56;;;;;;;17.77;11.75;;;8.30;99.90;;;;;;5032040;28;20533;-70
2022/12/19 08:53:23;;;;;;;17.02;11.10;;;8.30;99.90;;;;;;5032986;28;20035;-69
2022/12/19 08:56:00;;;;;;;21.70;11.65;;;8.40;99.90;;;;;;5035075;28;20033;-69
2022/12/19 08:58:27;;;;;;;17.77;11.23;;;8.40;99.90;;;;;;5033008;28;20025;-69
2022/12/19 09:00:54;;;;;;;17.13;11.32;;;8.40;99.90;;;;;;5028989;28;20026;-69
2022/12/19 09:03:21;;;;;;;18.33;10.80;;;8.50;99.90;;;;;;5032773;28;20025;-69
2022/12/19 09:05:55;;;;;;;16.08;10.77;;;8.40;99.90;;;;;;5034846;28;20033;-69
2022/12/19 09:08:20;;;;;;;21.33;11.07;;;8.50;99.90;;;;;;4999467;28;20029;-70
2022/12/19 09:10:46;;;;;;;19.08;11.70;;;8.50;99.90;;;;;;5030039;28;20036;-69
2022/12/19 09:13:11;;;;;;;13.57;8.77;;;8.50;99.90;;;;;;5030186;28;20044;-69
2022/12/19 09:15:37;;;;;;;17.52;10.10;;;8.50;99.90;;;;;;5030104;28;20033;-68
2022/12/19 09:18:02;;;;;;;16.60;9.82;;;8.60;99.90;;;;;;5025600;28;20025;-69
2022/12/19 09:20:28;;;;;;;12.85;8.82;;;8.60;99.90;;;;;;5029046;28;20377;-69
2022/12/19 09:22:54;;;;;;;14.18;9.00;;;8.60;99.90;;;;;;5026202;28;20033;-69
2022/12/19 09:25:20;;;;;;;16.00;10.13;;;8.60;99.90;;;;;;5060022;28;20033;-69
2022/12/19 09:27:45;;;;;;;15.07;10.05;;;8.70;99.90;;;;;;5024174;28;20037;-71
2022/12/19 09:30:13;;;;;;;13.40;8.57;;;8.60;99.90;;;;;;5024225;28;20025;-70
2022/12/19 09:32:38;;;;;;;14.48;9.02;;;8.60;99.90;;;;;;5056214;28;20098;-70
2022/12/19 09:35:05;;;;;;;14.90;8.50;;;8.70;99.90;;;;;;5026730;28;20046;-70
2022/12/19 09:37:31;;;;;;;17.85;11.07;;;8.60;99.90;;;;;;5027924;28;20437;-70
2022/12/19 09:39:57;;;;;;;18.08;9.82;;;8.70;99.90;;;;;;5023087;28;20025;-70
2022/12/19 09:42:40;;;;;;;14.25;8.73;;;8.70;99.90;;;;;;5028026;28;20022;-72
2022/12/19 09:45:39;;;;;;;13.45;8.75;;;8.80;99.90;;;;;;5021353;28;20036;-70
2022/12/19 09:48:11;;;;;;;14.10;8.15;;;8.80;99.90;;;;;;5027833;28;20299;-72
2022/12/19 09:50:55;;;;;;;12.32;8.68;;;8.90;99.90;;;;;;5028127;28;20442;-72
2022/12/19 09:53:32;;;;;;;13.23;8.20;;;8.90;99.90;;;;;;5028370;28;20045;-69
2022/12/19 09:55:59;;;;;;;12.70;8.60;;;8.90;99.90;;;;;;5029776;28;20033;-71
2022/12/19 09:58:27;;;;;;;10.75;7.95;;;9.00;99.90;;;;;;5029339;28;20047;-70
2022/12/19 10:00:58;;;;;;;12.73;7.57;;;8.90;99.90;;;;;;5024919;28;20052;-70
2022/12/19 10:03:31;;;;;;;11.05;7.82;;;9.00;99.90;;;;;;5026516;28;20053;-71
2022/12/19 10:06:01;;;;;;;12.38;7.63;;;8.90;99.90;;;;;;5028330;28;20437;-69
2022/12/19 10:08:31;;;;;;;9.55;6.88;;;9.00;99.90;;;;;;5022970;28;20041;-72
2022/12/19 10:11:11;;;;;;;12.68;7.43;;;9.00;99.90;;;;;;5024473;28;20025;-70
2022/12/19 10:13:43;;;;;;;8.85;6.57;;;9.00;99.90;;;;;;5027199;28;20045;-70
2022/12/19 10:16:42;;;;;;;13.90;7.07;;;9.00;99.90;;;;;;5023156;28;20033;-70
2022/12/19 10:19:26;;;;;;;8.90;6.75;;;9.10;99.90;;;;;;5026219;28;20037;-70
2022/12/19 10:22:10;;;;;;;8.93;6.43;;;9.00;99.90;;;;;;5023882;28;20025;-70
2022/12/19 10:25:02;;;;;;;11.40;7.07;;;9.10;99.90;;;;;;5022073;28;20446;-71
2022/12/19 10:27:46;;;;;;;9.63;6.70;;;9.20;99.90;;;;;;5024092;28;20047;-70
2022/12/19 10:30:13;;;;;;;10.25;5.72;;;9.20;99.90;;;;;;5025311;28;20029;-72
2022/12/19 10:32:51;;;;;;;10.18;6.13;;;9.10;99.90;;;;;;5030503;28;20107;-70
2022/12/19 10:35:19;;;;;;;9.55;6.20;;;9.20;99.90;;;;;;5028430;28;20044;-69
2022/12/19 10:37:51;;;;;;;10.63;7.10;;;9.20;99.90;;;;;;5025930;28;20026;-71
2022/12/19 10:40:37;;;;;;;8.13;6.00;;;9.30;99.90;;;;;;5023117;28;20076;-70
2022/12/19 10:43:11;;;;;;;12.65;6.15;;;9.20;99.90;;;;;;5024519;28;20102;-69
2022/12/19 10:45:43;;;;;;;11.15;6.55;;;9.30;99.90;;;;;;5028889;28;20036;-70
2022/12/19 10:48:16;;;;;;;11.90;6.25;;;9.30;99.90;;;;;;5020776;28;20032;-70
2022/12/19 10:50:42;;;;;;;9.50;7.07;;;9.30;99.90;;;;;;5056842;28;20025;-71
2022/12/19 10:53:11;;;;;;;9.52;6.22;;;9.30;99.90;;;;;;5026778;28;20029;-70
2022/12/19 10:55:46;;;;;;;9.48;6.53;;;9.30;99.90;;;;;;5026884;28;20049;-71
2022/12/19 10:58:22;;;;;;;9.50;7.05;;;9.30;99.90;;;;;;5022611;28;20025;-70
2022/12/19 11:00:56;;;;;;;13.63;7.47;;;9.30;99.90;;;;;;5026078;28;20028;-70
2022/12/19 11:03:22;;;;;;;10.68;8.35;;;9.40;99.90;;;;;;5022097;28;20026;-70
2022/12/19 11:05:50;;;;;;;13.00;7.38;;;9.30;99.90;;;;;;5023689;28;20032;-72
2022/12/19 11:08:23;;;;;;;10.18;7.68;;;9.40;99.90;;;;;;5023689;28;20025;-70
2022/12/19 11:10:51;;;;;;;9.68;7.15;;;9.40;99.90;;;;;;5023120;28;20100;-71
2022/12/19 11:13:27;;;;;;;10.13;6.95;;;9.40;99.90;;;;;;5022690;28;20038;-69
2022/12/19 11:15:55;;;;;;;9.02;6.63;;;9.40;99.90;;;;;;5023138;28;20424;-69
2022/12/19 11:18:22;;;;;;;12.23;6.75;;;9.40;99.90;;;;;;5019024;28;20026;-71
2022/12/19 11:21:00;;;;;;;11.13;9.35;;;9.40;99.90;;;;;;5023541;28;20103;-68
2022/12/19 11:23:28;;;;;;;8.23;5.47;;;9.40;99.90;;;;;;5026029;28;20041;-68
2022/12/19 11:26:05;;;;;;;11.50;5.88;;;9.40;99.90;;;;;;5021711;28;20537;-71
2022/12/19 11:28:32;;;;;;;9.93;5.85;;;9.40;99.90;;;;;;5026776;28;20057;-71
2022/12/19 11:31:09;;;;;;;10.65;6.95;;;9.40;99.90;;;;;;5018782;28;20032;-68
2022/12/19 11:33:35;;;;;;;6.85;5.55;;;9.40;99.90;;;;;;5022642;28;20049;-69
2022/12/19 11:36:03;;;;;;;11.45;7.93;;;9.40;99.90;;;;;;5026037;28;20032;-69
2022/12/19 11:38:36;;;;;;;7.78;6.03;;;9.40;99.90;;;;;;5026110;28;20108;-69
2022/12/19 11:41:08;;;;;;;;;;;9.40;99.90;;;;;;5027537;28;20060;-67
2022/12/19 11:43:43;;;;;;;8.32;5.65;;;9.40;99.90;;;;;;5025980;28;19932;-69
2022/12/19 11:46:25;;;;;;;10.05;6.20;;;9.50;99.90;;;;;;5025082;28;20120;-69
2022/12/19 11:49:47;;;;;;;6.78;5.15;;;9.50;99.90;;;;;;5026350;28;20029;-70
2022/12/19 11:52:35;;;;;;;8.43;5.50;;;9.50;99.90;;;;;;5023801;28;20116;-72
2022/12/19 11:55:25;;;;;;;9.55;5.13;;;9.60;99.90;;;;;;5026228;28;20072;-71
2022/12/19 11:57:52;;;;;;;7.28;4.55;;;9.70;99.90;;;;;;5039773;28;20481;-69
2022/12/19 12:00:20;;;;;;;7.60;4.57;;;9.80;99.90;;;;;;5026704;28;20021;-69
2022/12/19 12:03:33;;;;;;;7.15;5.28;;;9.70;99.90;;;;;;5026141;28;20028;-71
2022/12/19 12:05:59;;;;;;;;;;;9.80;99.90;;;;;;4970566;28;20043;-68
2022/12/19 12:09:02;;;;;;;6.10;4.97;;;9.90;99.90;;;;;;5025093;28;19913;-69
2022/12/19 12:11:42;;;;;;;10.38;5.85;;;9.90;99.90;;;;;;5024299;28;20080;-72
2022/12/19 12:14:22;;;;;;;5.78;4.57;;;10.00;99.90;;;;;;5025423;28;20088;-70
2022/12/19 12:17:19;;;;;;;6.32;4.82;;;10.00;99.90;;;;;;5025769;28;20033;-71
2022/12/19 12:20:13;;;;;;;7.00;4.13;;;10.00;99.90;;;;;;5026538;28;20127;-69
2022/12/19 12:22:47;;;;;;;7.03;4.40;;;10.00;99.90;;;;;;5025738;28;20466;-70
2022/12/19 12:25:44;;;;;;;9.93;4.47;;;10.00;99.90;;;;;;5025754;28;20448;-72
2022/12/19 12:28:27;;;;;;;6.03;4.47;;;10.10;99.90;;;;;;5025895;28;20021;-69
2022/12/19 12:31:22;;;;;;;4.45;3.40;;;10.10;99.90;;;;;;5025955;28;20022;-69
2022/12/19 12:33:57;;;;;;;5.13;4.20;;;10.20;99.90;;;;;;5027132;28;20120;-71
2022/12/19 12:36:52;;;;;;;5.72;3.80;;;10.20;99.90;;;;;;5022621;28;20017;-71
2022/12/19 12:39:32;;;;;;;5.95;3.92;;;10.20;99.90;;;;;;5025021;28;20396;-71
2022/12/19 12:42:19;;;;;;;5.93;4.28;;;10.30;99.90;;;;;;5025795;28;20033;-73
2022/12/19 12:44:49;;;;;;;4.63;3.80;;;10.30;99.90;;;;;;5024642;28;20388;-72
2022/12/19 12:47:21;;;;;;;7.07;4.07;;;10.20;99.90;;;;;;5025359;28;20032;-73
2022/12/19 12:50:16;;;;;;;6.97;4.55;;;10.30;99.90;;;;;;5026308;28;20030;-70
2022/12/19 12:52:43;;;;;;;4.38;3.53;;;10.30;99.90;;;;;;5020270;28;20041;-72
2022/12/19 12:55:22;;;;;;;6.25;3.88;;;10.30;99.90;;;;;;5025298;28;20120;-72
2022/12/19 12:57:47;;;;;;;5.63;4.10;;;10.30;99.90;;;;;;5026205;28;20022;-73
2022/12/19 13:00:16;;;;;;;6.60;4.35;;;10.30;99.90;;;;;;5024495;28;20094;-73
2022/12/19 13:02:56;;;;;;;9.93;4.80;;;10.30;99.90;;;;;;5026082;28;20017;-72
2022/12/19 13:05:30;;;;;;;8.88;4.13;;;10.30;99.90;;;;;;5027260;28;20037;-70